Time;durP1;ratioP1;P1;durP2;ratioP2;P2;SDS_P1;SDS_P2;PMS_P1;PMS_P2;Temp;Humidity;BMP_temperature;BMP_pressure;BME280_temperature;BME280_humidity;BME280_pressure;Samples;Min_cycle;Max_cycle;Signal;HPM_P1;HPM_P2
2021/01/16 00:01:02;;;;;;;;;49.00;41.00;;;;;21.45;50.49;99072.00;4996111;28;11589;-72
2021/01/16 00:03:30;;;;;;;;;50.50;42.50;;;;;21.50;50.60;99073.72;4996228;28;11709;-72
2021/01/16 00:06:00;;;;;;;;;46.25;38.25;;;;;21.54;50.35;99073.81;4996087;28;11694;-72
2021/01/16 00:08:29;;;;;;;;;55.50;44.25;;;;;21.56;50.64;99074.28;4996599;28;11598;-72
2021/01/16 00:11:00;;;;;;;;;54.00;44.00;;;;;21.56;50.45;99082.34;4995922;28;11661;-73
2021/01/16 00:13:34;;;;;;;;;47.50;40.50;;;;;21.55;50.33;99078.88;4996040;28;11627;-73
2021/01/16 00:16:04;;;;;;;;;52.25;40.00;;;;;21.56;50.35;99088.50;4996017;28;11630;-72
2021/01/16 00:18:32;;;;;;;;;52.00;41.25;;;;;21.60;50.25;99097.44;4995868;28;11742;-72
2021/01/16 00:21:01;;;;;;;;;56.50;43.25;;;;;21.62;50.15;99091.75;4995781;28;11573;-76
2021/01/16 00:23:30;;;;;;;;;34.25;28.25;;;;;21.64;50.16;99101.03;4976955;28;11677;-72
2021/01/16 00:25:59;;;;;;;;;51.75;41.00;;;;;21.69;50.38;99108.09;4995310;28;12411;-73
2021/01/16 00:28:32;;;;;;;;;51.00;41.25;;;;;21.71;51.93;99111.25;4995420;28;12339;-74
2021/01/16 00:31:02;;;;;;;;;49.75;40.25;;;;;21.69;51.16;99122.31;4996062;28;12510;-72
2021/01/16 00:33:33;;;;;;;;;50.25;42.25;;;;;21.59;51.33;99108.53;4995415;28;11639;-72
2021/01/16 00:36:03;;;;;;;;;7.00;7.00;;;;;21.58;51.23;99115.00;4995269;28;11657;-72
2021/01/16 00:38:39;;;;;;;;;52.25;41.75;;;;;21.58;51.06;99123.06;4995126;28;11565;-72
2021/01/16 00:41:08;;;;;;;;;49.00;39.75;;;;;21.57;51.02;99121.47;4994629;28;11583;-74
2021/01/16 00:43:37;;;;;;;;;52.50;41.75;;;;;21.64;51.22;99127.09;4994366;28;12361;-72
2021/01/16 00:46:06;;;;;;;;;50.75;41.25;;;;;21.61;51.24;99112.44;4994887;28;12381;-73
2021/01/16 00:48:34;;;;;;;;;50.50;39.25;;;;;21.64;51.54;99125.22;4993971;28;11652;-74
2021/01/16 00:51:02;;;;;;;;;41.75;36.50;;;;;21.68;51.84;99123.44;4994581;28;11678;-77
2021/01/16 00:53:30;;;;;;;;;34.50;28.25;;;;;21.69;51.72;99134.94;4994144;28;11597;-71
2021/01/16 00:55:59;;;;;;;;;47.75;38.25;;;;;21.68;51.68;99128.78;4994127;28;11588;-71
2021/01/16 00:58:29;;;;;;;;;48.00;40.00;;;;;21.70;51.74;99126.56;4993097;28;11650;-74
2021/01/16 01:00:58;;;;;;;;;47.50;36.50;;;;;21.80;51.42;99136.13;4993297;28;11581;-71
2021/01/16 01:03:26;;;;;;;;;47.75;36.50;;;;;21.83;51.47;99137.34;4993192;28;11631;-71
2021/01/16 01:05:56;;;;;;;;;44.50;36.50;;;;;21.92;51.47;99143.41;4993185;28;11591;-71
2021/01/16 01:08:29;;;;;;;;;47.00;38.00;;;;;21.97;51.44;99146.69;4989904;28;11819;-71
2021/01/16 01:10:58;;;;;;;;;47.75;38.25;;;;;21.98;51.53;99140.19;4975220;28;11627;-72
2021/01/16 01:13:26;;;;;;;;;29.75;29.75;;;;;22.04;51.63;99143.47;4993597;28;11659;-72
2021/01/16 01:15:54;;;;;;;;;41.25;35.50;;;;;22.07;51.72;99150.88;4993653;28;11592;-76
2021/01/16 01:18:23;;;;;;;;;46.75;36.75;;;;;22.03;51.45;99139.22;4991719;28;11539;-76
2021/01/16 01:20:51;;;;;;;;;36.00;33.50;;;;;22.23;51.64;99161.75;4994323;28;11562;-76
2021/01/16 01:23:20;;;;;;;;;44.50;37.25;;;;;22.21;51.43;99151.31;4940664;28;11668;-75
2021/01/16 01:25:48;;;;;;;;;40.25;32.00;;;;;22.25;51.39;99156.81;4993752;28;11667;-69
2021/01/16 01:28:16;;;;;;;;;41.50;32.25;;;;;22.37;51.61;99172.97;4993871;28;11207;-75
2021/01/16 01:30:44;;;;;;;;;46.25;36.75;;;;;22.43;51.53;99179.69;4993334;28;11602;-71
2021/01/16 01:33:16;;;;;;;;;40.75;34.25;;;;;22.45;51.76;99177.44;4992222;28;11700;-76
2021/01/16 01:35:45;;;;;;;;;36.25;32.75;;;;;22.49;52.26;99194.47;4992107;28;11134;-73
2021/01/16 01:38:20;;;;;;;;;33.75;29.00;;;;;22.46;51.76;99181.72;4976312;28;11581;-75
2021/01/16 01:40:48;;;;;;;;;26.75;25.00;;;;;22.54;52.35;99196.16;4992771;28;11194;-71
2021/01/16 01:43:16;;;;;;;;;28.50;24.75;;;;;22.55;52.18;99203.13;4992169;28;10873;-70
2021/01/16 01:45:45;;;;;;;;;26.75;26.50;;;;;22.55;52.35;99203.91;4992928;28;10879;-69
2021/01/16 01:48:13;;;;;;;;;31.00;30.50;;;;;22.60;51.66;99205.59;4975827;28;10838;-69
2021/01/16 01:50:42;;;;;;;;;29.75;27.50;;;;;22.59;51.83;99196.72;4993499;28;11055;-72
2021/01/16 01:53:14;;;;;;;;;39.50;33.00;;;;;22.67;51.82;99217.34;4992803;28;10708;-69
2021/01/16 01:55:49;;;;;;;;;36.00;32.50;;;;;22.72;51.57;99211.75;4991953;28;11220;-68
2021/01/16 01:58:24;;;;;;;;;37.75;33.25;;;;;22.74;51.50;99216.81;4991166;28;11106;-70
2021/01/16 02:00:53;;;;;;;;;34.50;30.75;;;;;22.76;52.07;99215.34;4991389;28;11298;-71
2021/01/16 02:03:24;;;;;;;;;32.00;30.75;;;;;22.77;51.89;99219.59;4991767;28;11028;-70
2021/01/16 02:05:56;;;;;;;;;35.00;30.75;;;;;22.77;50.91;99216.91;4990149;28;11042;-70
2021/01/16 02:08:25;;;;;;;;;38.25;30.00;;;;;22.81;51.63;99221.66;4990119;28;11001;-69
2021/01/16 02:10:53;;;;;;;;;44.00;32.75;;;;;22.84;52.00;99223.66;4993185;28;10810;-70
2021/01/16 02:13:21;;;;;;;;;38.00;31.50;;;;;22.85;51.44;99222.56;4990714;28;11142;-72
2021/01/16 02:16:14;;;;;;;;;36.00;32.25;;;;;22.89;51.37;99236.91;4989687;28;11174;-72
2021/01/16 02:18:47;;;;;;;;;35.75;32.00;;;;;22.89;51.43;99224.22;5046933;23;11827;-72
2021/01/16 02:21:19;;;;;;;;;37.25;32.00;;;;;22.94;51.54;99229.38;4993073;28;11030;-71
2021/01/16 02:23:50;;;;;;;;;39.00;34.50;;;;;22.96;52.19;99226.38;4993351;28;11024;-71
2021/01/16 02:26:35;;;;;;;;;27.25;24.25;;;;;22.99;51.79;99233.75;4991463;28;11871;-72
2021/01/16 02:29:08;;;;;;;;;36.25;32.75;;;;;23.01;51.83;99232.31;4992638;28;11100;-70
2021/01/16 02:31:41;;;;;;;;;38.50;33.00;;;;;23.04;51.15;99226.25;4992936;28;10968;-70
2021/01/16 02:34:16;;;;;;;;;38.25;31.50;;;;;23.09;51.21;99227.94;4992683;28;11135;-70
2021/01/16 02:37:05;;;;;;;;;38.75;33.00;;;;;23.11;50.92;99225.69;4992612;28;11105;-68
2021/01/16 02:39:54;;;;;;;;;35.00;32.50;;;;;23.17;50.52;99227.03;4973366;28;11122;-69
2021/01/16 02:42:54;;;;;;;;;40.25;35.00;;;;;23.21;48.49;99227.91;4973417;28;10884;-69
2021/01/16 02:45:29;;;;;;;;;37.00;31.50;;;;;23.21;49.47;99216.38;4973080;28;11069;-69
2021/01/16 02:48:15;;;;;;;;;39.00;33.25;;;;;23.22;48.20;99218.72;4973105;28;11220;-71
2021/01/16 02:50:48;;;;;;;;;38.25;30.75;;;;;23.14;48.56;99200.00;4980833;28;11019;-75
2021/01/16 02:53:20;;;;;;;;;32.00;31.00;;;;;23.26;49.51;99213.44;4988996;28;10938;-73
2021/01/16 02:55:53;;;;;;;;;37.50;30.00;;;;;23.26;50.75;99208.06;4991595;28;11006;-71
2021/01/16 02:58:21;;;;;;;;;38.00;30.00;;;;;23.31;50.66;99211.31;4975219;28;10815;-71
2021/01/16 03:00:49;;;;;;;;;29.00;26.00;;;;;23.36;50.79;99207.59;4991174;28;10915;-72
2021/01/16 03:03:17;;;;;;;;;29.50;27.50;;;;;23.38;50.92;99195.38;4989253;28;10797;-71
2021/01/16 03:05:46;;;;;;;;;31.50;27.75;;;;;23.43;51.12;99194.31;4991465;28;10656;-71
2021/01/16 03:08:19;;;;;;;;;33.75;31.00;;;;;23.49;50.94;99186.78;4974376;28;11465;-72
2021/01/16 03:10:48;;;;;;;;;25.25;18.50;;;;;23.52;48.16;99180.72;4990974;28;10777;-71
2021/01/16 03:13:17;;;;;;;;;29.25;24.75;;;;;23.61;49.31;99190.25;4991016;28;10936;-71
2021/01/16 03:15:46;;;;;;;;;35.00;27.25;;;;;23.57;50.07;99175.91;4963880;28;10441;-69
2021/01/16 03:18:22;;;;;;;;;29.25;25.00;;;;;23.65;50.39;99182.28;4990028;28;10635;-69
2021/01/16 03:20:53;;;;;;;;;30.75;28.00;;;;;23.67;50.36;99175.41;4990616;28;10532;-69
2021/01/16 03:23:21;;;;;;;;;34.50;27.75;;;;;23.72;50.76;99172.47;4991246;28;11357;-70
2021/01/16 03:25:50;;;;;;;;;33.50;27.75;;;;;23.76;49.65;99169.88;4990963;28;10384;-69
2021/01/16 03:28:18;;;;;;;;;29.00;28.50;;;;;23.78;49.87;99162.25;4990344;28;10557;-70
2021/01/16 03:30:47;;;;;;;;;30.00;28.00;;;;;23.90;50.58;99174.88;4990730;28;10742;-70
2021/01/16 03:33:15;;;;;;;;;30.00;25.25;;;;;23.95;48.46;99164.63;4990791;28;10533;-69
2021/01/16 03:35:43;;;;;;;;;29.25;28.00;;;;;24.02;49.75;99166.72;4991733;28;11176;-69
2021/01/16 03:38:11;;;;;;;;;23.75;21.25;;;;;24.07;49.23;99161.09;4989174;28;10387;-69
2021/01/16 03:40:40;;;;;;;;;28.00;27.75;;;;;24.10;47.33;99157.69;4974417;28;10403;-69
2021/01/16 03:43:08;;;;;;;;;25.75;25.75;;;;;24.13;49.08;99153.53;4974587;28;10382;-71
2021/01/16 03:45:36;;;;;;;;;27.75;25.75;;;;;24.21;47.81;99152.59;4971999;28;10380;-71
2021/01/16 03:48:06;;;;;;;;;30.00;25.25;;;;;24.13;48.98;99140.06;4992804;28;10376;-70
2021/01/16 03:50:34;;;;;;;;;29.00;27.25;;;;;24.24;47.47;99149.19;4991152;28;10388;-70
2021/01/16 03:53:03;;;;;;;;;27.75;25.25;;;;;24.21;47.63;99141.81;4973689;28;10375;-70
2021/01/16 03:55:31;;;;;;;;;38.25;30.75;;;;;24.23;49.89;99143.00;4972078;28;10254;-70
2021/01/16 03:57:59;;;;;;;;;29.75;24.25;;;;;24.30;47.58;99139.75;4996839;28;10291;-69
2021/01/16 04:00:28;;;;;;;;;21.50;20.75;;;;;24.31;47.45;99133.22;4994842;28;10357;-70
2021/01/16 04:02:56;;;;;;;;;35.00;29.50;;;;;24.36;47.49;99133.75;4989678;28;10398;-70
2021/01/16 04:05:24;;;;;;;;;25.50;24.50;;;;;24.38;48.74;99136.09;4989409;28;10337;-70
2021/01/16 04:07:54;;;;;;;;;25.75;19.75;;;;;24.43;49.39;99127.75;4972545;28;10032;-70
2021/01/16 04:10:22;;;;;;;;;28.50;24.00;;;;;24.45;48.22;99122.78;4992851;28;10149;-70
2021/01/16 04:12:51;;;;;;;;;23.25;21.75;;;;;24.53;47.49;99115.66;4993254;28;10317;-70
2021/01/16 04:15:20;;;;;;;;;25.00;23.25;;;;;24.56;48.23;99118.41;4990938;28;10141;-69
2021/01/16 04:17:48;;;;;;;;;25.75;22.75;;;;;24.59;49.55;99111.53;4993216;28;10125;-71
2021/01/16 04:20:16;;;;;;;;;22.50;22.00;;;;;24.66;48.69;99109.00;4993450;28;10430;-70
2021/01/16 04:22:45;;;;;;;;;23.00;22.00;;;;;24.66;48.33;99093.59;4991087;28;10081;-70
2021/01/16 04:25:14;;;;;;;;;29.75;27.50;;;;;24.77;48.48;99101.13;4988213;28;10227;-71
2021/01/16 04:27:43;;;;;;;;;21.00;18.00;;;;;24.81;47.34;99083.88;4991612;28;10451;-70
2021/01/16 04:30:12;;;;;;;;;22.50;20.75;;;;;24.84;47.27;99075.09;4989708;28;9970;-71
2021/01/16 04:32:40;;;;;;;;;24.50;24.25;;;;;24.89;48.87;99092.91;4974246;28;10279;-70
2021/01/16 04:35:09;;;;;;;;;26.00;25.00;;;;;24.91;49.24;99069.06;4992563;28;10191;-68
2021/01/16 04:37:38;;;;;;;;;20.25;20.25;;;;;24.96;48.56;99060.69;4993140;28;10144;-69
2021/01/16 04:40:07;;;;;;;;;26.00;24.00;;;;;25.09;48.42;99067.53;4995755;28;10089;-70
2021/01/16 04:42:41;;;;;;;;;30.00;23.00;;;;;25.14;47.07;99053.75;5007430;28;10108;-70
2021/01/16 04:45:15;;;;;;;;;19.00;17.25;;;;;25.14;46.88;99047.56;5005669;28;9865;-69
2021/01/16 04:47:47;;;;;;;;;24.00;22.25;;;;;25.17;47.27;99036.06;5001649;28;10088;-68
2021/01/16 04:50:18;;;;;;;;;30.50;24.00;;;;;25.18;46.89;99029.53;4993132;28;10115;-68
2021/01/16 04:52:47;;;;;;;;;30.50;25.75;;;;;25.20;48.72;99038.06;4973004;28;10522;-68
2021/01/16 04:55:20;;;;;;;;;25.75;22.50;;;;;25.23;48.28;99038.13;4993658;28;10217;-71
2021/01/16 04:57:50;;;;;;;;;24.25;23.25;;;;;25.32;48.00;99032.50;4990343;28;10310;-70
2021/01/16 05:00:18;;;;;;;;;26.00;24.00;;;;;25.42;47.94;99021.13;4992117;28;10279;-71
2021/01/16 05:02:52;;;;;;;;;30.00;23.75;;;;;25.52;47.35;99014.34;4981021;28;9979;-71
2021/01/16 05:05:22;;;;;;;;;19.75;18.25;;;;;25.58;47.80;99011.00;4992470;28;9950;-71
2021/01/16 05:07:51;;;;;;;;;23.25;20.00;;;;;25.64;47.03;99004.19;4991507;28;9716;-70
2021/01/16 05:10:22;;;;;;;;;25.25;21.25;;;;;25.69;47.00;99008.50;4992745;28;10340;-70
2021/01/16 05:13:12;;;;;;;;;24.00;18.50;;;;;25.69;47.39;98997.69;4993637;28;9743;-70
2021/01/16 05:15:42;;;;;;;;;22.50;18.25;;;;;25.70;47.86;98991.16;4993002;28;9889;-70
2021/01/16 05:18:13;;;;;;;;;19.75;18.00;;;;;25.76;46.95;98984.31;4993677;28;9655;-70
2021/01/16 05:20:44;;;;;;;;;21.75;18.50;;;;;25.82;47.36;98980.16;4977220;28;9736;-70
2021/01/16 05:23:16;;;;;;;;;20.25;17.50;;;;;25.82;46.60;98966.63;4992447;28;9628;-71
2021/01/16 05:25:52;;;;;;;;;25.75;22.25;;;;;25.85;46.93;98967.84;4990239;28;9814;-71
2021/01/16 05:28:23;;;;;;;;;24.00;20.75;;;;;25.87;47.28;98954.75;4992461;28;9631;-69
2021/01/16 05:31:02;;;;;;;;;19.50;19.50;;;;;25.93;47.16;98953.28;4992583;28;9633;-69
2021/01/16 05:33:38;;;;;;;;;21.75;20.50;;;;;26.01;46.44;98947.59;4991432;28;9707;-71
2021/01/16 05:36:10;;;;;;;;;17.33;16.00;;;;;26.06;46.70;98941.09;4990735;28;9562;-70
2021/01/16 05:38:40;;;;;;;;;17.25;16.25;;;;;26.07;46.64;98928.38;4992404;28;9405;-71
2021/01/16 05:41:14;;;;;;;;;11.33;8.33;;;;;26.11;46.71;98926.50;4990024;28;9540;-70
2021/01/16 05:43:44;;;;;;;;;16.00;13.67;;;;;26.15;46.50;98925.38;4992828;28;9319;-70
2021/01/16 05:46:15;;;;;;;;;12.67;12.00;;;;;26.20;46.83;98911.56;4992084;28;9477;-70
2021/01/16 05:48:43;;;;;;;;;15.00;14.33;;;;;26.29;46.56;98909.34;4992236;28;9206;-71
2021/01/16 05:51:15;;;;;;;;;16.67;14.00;;;;;26.38;46.00;98892.09;4992261;28;9201;-70
2021/01/16 05:53:44;;;;;;;;;14.33;14.00;;;;;26.49;45.84;98893.78;4991667;28;9194;-70
2021/01/16 05:56:15;;;;;;;;;15.00;13.67;;;;;26.54;45.87;98887.28;4991775;28;9752;-70
2021/01/16 05:58:44;;;;;;;;;18.00;14.67;;;;;26.61;45.68;98884.66;4991539;28;9261;-70
2021/01/16 06:01:22;;;;;;;;;18.00;18.00;;;;;26.68;45.55;98882.03;4991576;28;9173;-70
2021/01/16 06:03:52;;;;;;;;;13.00;13.00;;;;;26.78;45.25;98872.47;4991920;28;9339;-70
2021/01/16 06:06:22;;;;;;;;;13.67;13.67;;;;;26.84;45.34;98870.97;4992862;28;9102;-70
2021/01/16 06:08:52;;;;;;;;;17.00;14.00;;;;;26.90;45.09;98869.50;4990996;28;9250;-71
2021/01/16 06:11:24;;;;;;;;;13.00;13.00;;;;;26.94;44.87;98860.25;4989536;28;8969;-72
2021/01/16 06:13:56;;;;;;;;;10.67;10.67;;;;;26.97;45.20;98858.75;4991111;28;9228;-71
2021/01/16 06:16:26;;;;;;;;;18.67;16.00;;;;;26.93;44.85;98853.28;4992788;28;8928;-71
2021/01/16 06:19:03;;;;;;;;;10.75;10.75;;;;;26.85;44.46;98838.13;4992564;28;9121;-71
2021/01/16 06:21:32;;;;;;;;;17.67;13.33;;;;;26.88;44.78;98840.09;4993536;28;8865;-72
2021/01/16 06:24:01;;;;;;;;;12.67;12.67;;;;;26.88;43.73;98839.31;4993075;28;9082;-70
2021/01/16 06:26:30;;;;;;;;;12.75;11.25;;;;;26.87;44.55;98822.28;4993334;28;9088;-71
2021/01/16 06:29:03;;;;;;;;;14.67;14.67;;;;;26.89;44.41;98816.50;4992471;28;8873;-71
2021/01/16 06:31:34;;;;;;;;;11.33;11.00;;;;;26.97;44.90;98820.88;4992161;28;8965;-74
2021/01/16 06:34:08;;;;;;;;;20.67;17.67;;;;;27.00;44.81;98817.41;4969876;28;9064;-75
2021/01/16 06:36:37;;;;;;;;;20.00;17.00;;;;;26.96;44.67;98803.84;4991407;28;9215;-75
2021/01/16 06:39:07;;;;;;;;;18.33;17.00;;;;;27.05;45.03;98805.47;4990503;28;9163;-78
2021/01/16 06:41:45;;;;;;;;;22.33;15.67;;;;;27.03;44.44;98803.13;4990291;28;9390;-74
2021/01/16 06:44:15;;;;;;;;;21.67;16.33;;;;;27.06;44.45;98798.88;4989873;28;9050;-79
2021/01/16 06:46:46;;;;;;;;;17.33;15.33;;;;;27.14;44.66;98792.38;4991276;28;9245;-75
2021/01/16 06:49:34;;;;;;;;;15.00;11.33;;;;;27.17;44.06;98778.88;4991966;28;8944;-72
2021/01/16 06:52:08;;;;;;;;;15.33;15.33;;;;;27.24;43.75;98784.34;4988736;28;9093;-73
2021/01/16 06:54:38;;;;;;;;;14.00;14.00;;;;;27.34;43.94;98792.88;4991747;28;9044;-75
2021/01/16 06:57:08;;;;;;;;;19.00;17.00;;;;;27.37;43.83;98768.53;4991980;28;8956;-75
2021/01/16 06:59:38;;;;;;;;;17.00;15.67;;;;;27.55;43.55;98782.94;5002296;28;9186;-77
2021/01/16 07:02:21;;;;;;;;;19.00;18.33;;;;;27.72;42.87;98772.63;4973805;28;9137;-73
2021/01/16 07:04:58;;;;;;;;;22.00;20.67;;;;;27.89;43.18;98769.22;4993108;28;9325;-74
2021/01/16 07:07:33;;;;;;;;;23.00;20.00;;;;;28.07;42.66;98774.69;4994403;28;9108;-74
2021/01/16 07:10:14;;;;;;;;;17.25;17.25;;;;;28.23;42.26;98769.75;4983558;28;9009;-74
2021/01/16 07:12:46;;;;;;;;;18.33;15.33;;;;;28.41;41.86;98769.78;4983608;28;8872;-74
2021/01/16 07:15:15;;;;;;;;;19.00;17.33;;;;;28.50;42.85;98762.84;5000666;28;8927;-74
2021/01/16 07:17:45;;;;;;;;;16.25;15.75;;;;;28.58;43.08;98755.47;5001749;28;9102;-73
2021/01/16 07:20:14;;;;;;;;;16.25;15.75;;;;;28.58;41.96;98755.47;5000425;28;8859;-71
2021/01/16 07:22:44;;;;;;;;;16.75;16.00;;;;;28.55;42.92;98756.25;4999689;28;8853;-71
2021/01/16 07:25:15;;;;;;;;;15.25;15.25;;;;;28.55;41.90;98746.16;5001225;28;8871;-76
2021/01/16 07:27:43;;;;;;;;;22.50;16.50;;;;;28.56;42.06;98750.44;4995848;28;8857;-72
2021/01/16 07:30:14;;;;;;;;;15.75;15.75;;;;;28.57;42.61;98727.56;4991810;28;8853;-75
2021/01/16 07:32:50;;;;;;;;;20.75;19.75;;;;;28.72;42.30;98743.81;4991436;28;8868;-72
2021/01/16 07:35:24;;;;;;;;;20.50;17.75;;;;;28.73;41.64;98729.09;4991768;28;9696;-71
2021/01/16 07:37:54;;;;;;;;;18.00;18.00;;;;;28.77;41.93;98722.50;4991971;28;8846;-74
2021/01/16 07:40:27;;;;;;;;;17.25;16.00;;;;;28.80;41.58;98729.84;4990943;28;8960;-71
2021/01/16 07:43:01;;;;;;;;;22.00;21.00;;;;;28.87;41.91;98723.69;4991062;28;8842;-71
2021/01/16 07:45:32;;;;;;;;;18.67;18.67;;;;;28.89;41.38;98713.97;4990991;28;8834;-70
2021/01/16 07:48:01;;;;;;;;;19.00;16.25;;;;;29.07;42.71;98715.91;4972781;28;8941;-70
2021/01/16 07:50:37;;;;;;;;;22.00;19.50;;;;;29.11;40.44;98714.72;4992083;28;8865;-70
2021/01/16 07:53:08;;;;;;;;;15.25;13.50;;;;;29.14;41.54;98713.94;4991825;28;8850;-71
2021/01/16 07:55:36;;;;;;;;;18.00;16.50;;;;;29.12;41.97;98710.84;4974031;28;8951;-71
2021/01/16 07:58:17;;;;;;;;;18.25;15.25;;;;;29.08;41.42;98718.22;4990851;28;8945;-70
2021/01/16 08:00:59;;;;;;;;;21.00;18.00;;;;;29.01;41.37;98710.09;4990839;28;8883;-70
2021/01/16 08:03:43;;;;;;;;;20.25;18.00;;;;;29.03;41.48;98717.84;4989126;28;8881;-71
2021/01/16 08:06:28;;;;;;;;;19.50;17.75;;;;;29.07;41.12;98711.25;4994721;28;8865;-70
2021/01/16 08:09:05;;;;;;;;;20.75;19.75;;;;;29.17;41.51;98715.13;4995070;28;8859;-70
2021/01/16 08:11:35;;;;;;;;;18.00;16.25;;;;;29.20;40.92;98708.91;4993518;28;9020;-71
2021/01/16 08:14:06;;;;;;;;;17.75;16.25;;;;;29.21;40.51;98713.16;5003244;28;8860;-70
2021/01/16 08:16:34;;;;;;;;;17.75;16.50;;;;;29.25;40.84;98705.00;4996041;28;9626;-71
2021/01/16 08:19:24;;;;;;;;;17.25;16.50;;;;;29.26;40.95;98707.31;4994405;28;8872;-71
2021/01/16 08:21:55;;;;;;;;;18.25;15.50;;;;;29.23;40.80;98705.41;4997780;28;8927;-71
2021/01/16 08:24:27;;;;;;;;;16.75;16.50;;;;;29.17;41.41;98701.53;5004725;28;8855;-71
2021/01/16 08:27:03;;;;;;;;;21.25;18.50;;;;;29.15;41.23;98698.44;5002150;28;8929;-71
2021/01/16 08:29:32;;;;;;;;;18.25;17.75;;;;;29.11;42.02;98698.44;4995851;28;8837;-71
2021/01/16 08:32:11;;;;;;;;;18.00;16.75;;;;;29.03;42.53;98696.91;4995886;28;9026;-70
2021/01/16 08:34:59;;;;;;;;;22.50;17.00;;;;;29.00;41.28;98694.19;4995077;28;8839;-70
2021/01/16 08:37:37;;;;;;;;;18.25;18.25;;;;;28.97;42.39;98697.69;4991390;28;8842;-71
2021/01/16 08:40:09;;;;;;;;;23.50;18.00;;;;;28.90;41.75;98699.25;4994096;28;8850;-71
2021/01/16 08:42:54;;;;;;;;;13.25;11.50;;;;;28.86;41.56;98687.63;4993972;28;8856;-71
2021/01/16 08:45:22;;;;;;;;;19.00;17.25;;;;;28.86;42.45;98694.97;4991871;28;8858;-71
2021/01/16 08:47:51;;;;;;;;;18.25;16.00;;;;;28.81;42.59;98687.19;4993587;28;8861;-71
2021/01/16 08:50:21;;;;;;;;;22.50;20.50;;;;;28.74;42.18;98693.41;4992366;28;8846;-71
2021/01/16 08:52:49;;;;;;;;;20.50;18.00;;;;;28.67;42.07;98692.63;4993969;28;8857;-71
2021/01/16 08:55:24;;;;;;;;;20.00;18.25;;;;;28.64;41.89;98687.97;4993604;28;8865;-71
2021/01/16 08:58:07;;;;;;;;;20.75;16.75;;;;;28.63;40.81;98691.88;4992496;28;8850;-71
2021/01/16 09:00:38;;;;;;;;;16.50;16.50;;;;;28.65;40.61;98697.69;4994092;28;8861;-71
2021/01/16 09:03:16;;;;;;;;;19.50;19.50;;;;;28.74;40.43;98692.63;4993989;28;8888;-68
2021/01/16 09:05:47;;;;;;;;;21.00;18.00;;;;;28.82;40.63;98692.28;4993248;28;8853;-70
2021/01/16 09:08:24;;;;;;;;;20.50;19.00;;;;;28.90;40.81;98698.47;4993420;28;8845;-70
2021/01/16 09:10:54;;;;;;;;;19.00;16.50;;;;;28.95;41.90;98695.34;4992259;28;8952;-71
2021/01/16 09:13:32;;;;;;;;;16.75;15.25;;;;;28.97;41.32;98695.75;4991169;28;8962;-70
2021/01/16 09:16:01;;;;;;;;;19.50;18.50;;;;;28.86;41.30;98693.03;4991812;28;8904;-70
2021/01/16 09:18:30;;;;;;;;;16.75;13.75;;;;;28.88;41.40;98690.72;4991056;28;8853;-70
2021/01/16 09:21:00;;;;;;;;;21.25;19.25;;;;;28.82;41.61;98696.91;4992958;28;8864;-71
2021/01/16 09:23:40;;;;;;;;;20.00;17.50;;;;;28.76;41.28;98695.75;4992505;28;8846;-69
2021/01/16 09:26:12;;;;;;;;;20.75;18.75;;;;;28.69;41.23;98695.75;4992853;28;8916;-70
2021/01/16 09:28:49;;;;;;;;;21.00;19.25;;;;;28.68;41.01;98715.91;4992278;28;8825;-69
2021/01/16 09:31:30;;;;;;;;;17.50;16.25;;;;;28.66;41.38;98713.56;4992254;28;9551;-70
2021/01/16 09:34:20;;;;;;;;;16.25;16.25;;;;;28.65;41.38;98703.88;4991231;28;8862;-69
2021/01/16 09:36:56;;;;;;;;;21.00;18.00;;;;;28.66;41.48;98705.44;4992105;28;8830;-69
2021/01/16 09:39:28;;;;;;;;;18.00;17.75;;;;;28.64;42.00;98713.19;4991065;28;8849;-69
2021/01/16 09:41:58;;;;;;;;;20.00;18.75;;;;;28.58;41.73;98703.91;4990199;28;8873;-70
2021/01/16 09:44:44;;;;;;;;;22.75;19.50;;;;;28.56;42.17;98717.09;4991964;28;8853;-69
2021/01/16 09:47:28;;;;;;;;;19.25;17.25;;;;;28.50;42.27;98715.91;4991237;28;8857;-68
2021/01/16 09:50:15;;;;;;;;;25.00;17.75;;;;;28.44;42.12;98715.53;4991533;28;8884;-69
2021/01/16 09:52:53;;;;;;;;;14.75;14.50;;;;;28.39;42.06;98715.91;4993196;28;8834;-68
2021/01/16 09:55:32;;;;;;;;;20.25;16.25;;;;;28.35;41.96;98714.34;4992706;28;8853;-70
2021/01/16 09:58:02;;;;;;;;;13.25;13.25;;;;;28.29;41.86;98711.25;4992142;28;8855;-68
2021/01/16 10:00:36;;;;;;;;;18.50;18.25;;;;;28.30;42.01;98722.88;4992169;28;8868;-68
2021/01/16 10:03:09;;;;;;;;;18.00;16.00;;;;;28.28;41.91;98728.69;4992031;28;8987;-68
2021/01/16 10:05:42;;;;;;;;;20.25;19.25;;;;;28.27;42.24;98723.66;4993278;28;8893;-68
2021/01/16 10:08:28;;;;;;;;;23.00;18.50;;;;;28.25;41.99;98722.09;4993704;28;8861;-68
2021/01/16 10:10:58;;;;;;;;;21.67;19.00;;;;;28.24;42.07;98722.47;4993620;28;9633;-68
2021/01/16 10:13:33;;;;;;;;;24.00;18.75;;;;;28.21;42.02;98726.69;4993808;28;8938;-68
2021/01/16 10:16:05;;;;;;;;;20.00;19.50;;;;;28.16;42.04;98726.31;4993790;28;8854;-68
2021/01/16 10:18:36;;;;;;;;;22.50;19.25;;;;;28.14;42.30;98734.81;4993654;28;8861;-68
2021/01/16 10:21:13;;;;;;;;;20.00;18.75;;;;;28.09;42.17;98731.72;4993649;28;8880;-68
2021/01/16 10:23:44;;;;;;;;;23.67;20.67;;;;;28.05;42.22;98730.91;4993602;28;8865;-68
2021/01/16 10:26:16;;;;;;;;;16.25;16.25;;;;;27.98;42.23;98737.09;4993159;28;8954;-68
2021/01/16 10:29:23;;;;;;;;;21.00;19.00;;;;;27.94;42.45;98741.72;4993070;28;8845;-68
2021/01/16 10:31:51;;;;;;;;;23.75;20.00;;;;;27.88;42.37;98738.63;4993392;28;8946;-68
2021/01/16 10:34:29;;;;;;;;;20.50;16.75;;;;;27.82;42.27;98737.44;4993412;28;8861;-68
2021/01/16 10:36:59;;;;;;;;;23.00;18.75;;;;;27.77;42.48;98737.03;4993432;28;8889;-68
2021/01/16 10:39:38;;;;;;;;;18.50;17.75;;;;;27.77;42.46;98742.44;4993271;28;8873;-68
2021/01/16 10:42:14;;;;;;;;;20.00;16.00;;;;;27.73;42.62;98737.00;4993350;28;8838;-68
2021/01/16 10:44:43;;;;;;;;;19.00;18.50;;;;;27.67;42.43;98732.31;4993234;28;8976;-68
2021/01/16 10:47:34;;;;;;;;;23.00;20.00;;;;;27.67;42.89;98737.75;4993161;28;8853;-68
2021/01/16 10:50:12;;;;;;;;;22.25;21.75;;;;;27.61;42.76;98746.25;4993319;28;8861;-68
2021/01/16 10:52:41;;;;;;;;;19.50;17.75;;;;;27.55;42.78;98739.59;4993320;28;8929;-68
2021/01/16 10:55:13;;;;;;;;;20.00;18.25;;;;;27.51;43.43;98746.16;4993065;28;9602;-68
2021/01/16 10:57:49;;;;;;;;;20.50;18.50;;;;;27.45;42.84;98743.03;4992986;28;8876;-68
2021/01/16 11:00:20;;;;;;;;;21.67;18.33;;;;;27.37;43.13;98744.16;4993201;28;8865;-68
2021/01/16 11:02:49;;;;;;;;;19.67;19.00;;;;;27.33;43.23;98745.28;4992887;28;9700;-68
2021/01/16 11:05:23;;;;;;;;;23.33;21.67;;;;;27.33;43.13;98748.75;4992861;28;9024;-68
2021/01/16 11:07:55;;;;;;;;;19.75;18.75;;;;;27.26;43.11;98752.22;4992853;28;8979;-68
2021/01/16 11:10:34;;;;;;;;;23.00;18.00;;;;;27.24;43.58;98753.75;4992825;28;8842;-68
2021/01/16 11:13:32;;;;;;;;;21.33;20.67;;;;;27.20;43.45;98758.38;4992844;28;8849;-68
2021/01/16 11:16:13;;;;;;;;;22.33;21.00;;;;;27.15;43.52;98764.16;4992825;28;9013;-68
2021/01/16 11:18:44;;;;;;;;;20.67;20.33;;;;;27.11;43.30;98766.06;4992783;28;9018;-68
2021/01/16 11:21:29;;;;;;;;;24.00;21.00;;;;;27.07;43.48;98763.31;4992740;28;9032;-68
2021/01/16 11:24:20;;;;;;;;;21.67;21.67;;;;;27.04;43.62;98774.91;4992641;28;9325;-68
2021/01/16 11:26:49;;;;;;;;;20.67;18.67;;;;;26.99;43.52;98769.06;4992561;28;9332;-68
2021/01/16 11:29:19;;;;;;;;;22.67;22.67;;;;;26.96;43.80;98774.06;4992573;28;10022;-68
2021/01/16 11:31:52;;;;;;;;;26.00;22.67;;;;;26.92;43.77;98781.34;4992576;28;9368;-68
2021/01/16 11:34:23;;;;;;;;;23.00;23.00;;;;;26.88;43.53;98782.47;4992547;28;9185;-68
2021/01/16 11:37:04;;;;;;;;;22.00;19.00;;;;;26.85;43.67;98785.91;4992494;28;9185;-68
2021/01/16 11:39:44;;;;;;;;;20.00;19.00;;;;;26.83;43.71;98794.41;4995459;28;9186;-68
2021/01/16 11:42:14;;;;;;;;;18.67;18.67;;;;;26.82;43.77;98792.09;4996623;28;9116;-68
2021/01/16 11:45:01;;;;;;;;;22.67;19.00;;;;;26.81;43.61;98795.94;4996887;28;9280;-68
2021/01/16 11:47:30;;;;;;;;;6.00;1.00;;;;;26.75;43.73;98787.38;4996438;28;9100;-68